sensor_id;sensor_type;location;lat;lon;timestamp;P1;durP1;ratioP1;P2;durP2;ratioP2
51943;SDS011;37969;53.132;6.370;2024-02-26T00:00:50;49.03;;;20.88;;
51943;SDS011;37969;53.132;6.370;2024-02-26T00:03:19;55.28;;;22.48;;
51943;SDS011;37969;53.132;6.370;2024-02-26T00:05:52;54.10;;;22.17;;
51943;SDS011;37969;53.132;6.370;2024-02-26T00:08:26;60.15;;;23.25;;
51943;SDS011;37969;53.132;6.370;2024-02-26T00:10:56;50.75;;;21.23;;
51943;SDS011;37969;53.132;6.370;2024-02-26T00:13:24;57.20;;;23.35;;
51943;SDS011;37969;53.132;6.370;2024-02-26T00:15:52;62.53;;;24.50;;
51943;SDS011;37969;53.132;6.370;2024-02-26T00:18:24;53.80;;;23.25;;
51943;SDS011;37969;53.132;6.370;2024-02-26T00:20:52;51.63;;;23.73;;
51943;SDS011;37969;53.132;6.370;2024-02-26T00:23:28;52.70;;;21.65;;
51943;SDS011;37969;53.132;6.370;2024-02-26T00:25:54;52.55;;;21.63;;
51943;SDS011;37969;53.132;6.370;2024-02-26T00:28:20;59.20;;;23.20;;
51943;SDS011;37969;53.132;6.370;2024-02-26T00:30:52;83.00;;;27.83;;
51943;SDS011;37969;53.132;6.370;2024-02-26T00:33:21;59.45;;;25.23;;
51943;SDS011;37969;53.132;6.370;2024-02-26T00:35:48;68.78;;;27.88;;
51943;SDS011;37969;53.132;6.370;2024-02-26T00:38:19;67.35;;;29.17;;
51943;SDS011;37969;53.132;6.370;2024-02-26T00:40:47;80.35;;;29.48;;
51943;SDS011;37969;53.132;6.370;2024-02-26T00:43:14;73.07;;;29.63;;
51943;SDS011;37969;53.132;6.370;2024-02-26T00:45:42;82.63;;;31.50;;
51943;SDS011;37969;53.132;6.370;2024-02-26T00:48:11;71.80;;;29.13;;
51943;SDS011;37969;53.132;6.370;2024-02-26T00:50:43;68.88;;;29.85;;
51943;SDS011;37969;53.132;6.370;2024-02-26T00:53:10;69.32;;;29.85;;
51943;SDS011;37969;53.132;6.370;2024-02-26T00:55:36;71.18;;;30.83;;
51943;SDS011;37969;53.132;6.370;2024-02-26T00:58:04;71.13;;;31.38;;
51943;SDS011;37969;53.132;6.370;2024-02-26T01:00:33;77.85;;;32.33;;
51943;SDS011;37969;53.132;6.370;2024-02-26T01:03:06;73.63;;;33.08;;
51943;SDS011;37969;53.132;6.370;2024-02-26T01:05:35;68.20;;;31.17;;
51943;SDS011;37969;53.132;6.370;2024-02-26T01:08:03;64.80;;;31.05;;
51943;SDS011;37969;53.132;6.370;2024-02-26T01:12:59;56.38;;;28.70;;
51943;SDS011;37969;53.132;6.370;2024-02-26T01:15:25;54.72;;;28.58;;
51943;SDS011;37969;53.132;6.370;2024-02-26T01:17:57;56.63;;;30.08;;
51943;SDS011;37969;53.132;6.370;2024-02-26T01:20:25;52.97;;;28.75;;
51943;SDS011;37969;53.132;6.370;2024-02-26T01:22:54;55.35;;;29.00;;
51943;SDS011;37969;53.132;6.370;2024-02-26T01:25:21;51.05;;;27.95;;
51943;SDS011;37969;53.132;6.370;2024-02-26T01:27:48;49.17;;;27.83;;
51943;SDS011;37969;53.132;6.370;2024-02-26T01:30:14;48.97;;;27.17;;
51943;SDS011;37969;53.132;6.370;2024-02-26T01:32:45;47.15;;;26.60;;
51943;SDS011;37969;53.132;6.370;2024-02-26T01:35:13;49.53;;;25.70;;
51943;SDS011;37969;53.132;6.370;2024-02-26T01:37:40;46.55;;;25.02;;
51943;SDS011;37969;53.132;6.370;2024-02-26T01:40:09;47.35;;;25.67;;
51943;SDS011;37969;53.132;6.370;2024-02-26T01:42:38;44.65;;;25.88;;
51943;SDS011;37969;53.132;6.370;2024-02-26T01:45:04;42.70;;;25.60;;
51943;SDS011;37969;53.132;6.370;2024-02-26T01:47:32;47.47;;;24.17;;
51943;SDS011;37969;53.132;6.370;2024-02-26T01:49:58;45.50;;;25.33;;
51943;SDS011;37969;53.132;6.370;2024-02-26T01:52:29;44.50;;;24.63;;
51943;SDS011;37969;53.132;6.370;2024-02-26T01:54:59;44.90;;;24.75;;
51943;SDS011;37969;53.132;6.370;2024-02-26T01:57:28;41.97;;;24.23;;
51943;SDS011;37969;53.132;6.370;2024-02-26T02:00:03;41.13;;;24.52;;
51943;SDS011;37969;53.132;6.370;2024-02-26T02:02:31;36.95;;;22.27;;
51943;SDS011;37969;53.132;6.370;2024-02-26T02:04:59;37.13;;;21.98;;
51943;SDS011;37969;53.132;6.370;2024-02-26T02:07:31;32.28;;;20.15;;
51943;SDS011;37969;53.132;6.370;2024-02-26T02:10:02;31.13;;;18.92;;
51943;SDS011;37969;53.132;6.370;2024-02-26T02:12:32;29.67;;;18.98;;
51943;SDS011;37969;53.132;6.370;2024-02-26T02:15:03;34.28;;;19.70;;
51943;SDS011;37969;53.132;6.370;2024-02-26T02:19:59;28.05;;;17.02;;
51943;SDS011;37969;53.132;6.370;2024-02-26T02:22:28;26.27;;;16.33;;
51943;SDS011;37969;53.132;6.370;2024-02-26T02:24:57;24.60;;;16.95;;
51943;SDS011;37969;53.132;6.370;2024-02-26T02:27:26;25.25;;;16.17;;
51943;SDS011;37969;53.132;6.370;2024-02-26T02:29:53;25.30;;;16.30;;
51943;SDS011;37969;53.132;6.370;2024-02-26T02:32:19;23.20;;;16.00;;
51943;SDS011;37969;53.132;6.370;2024-02-26T02:34:47;25.60;;;16.73;;
51943;SDS011;37969;53.132;6.370;2024-02-26T02:37:16;22.88;;;15.45;;
51943;SDS011;37969;53.132;6.370;2024-02-26T02:39:44;25.02;;;15.88;;
51943;SDS011;37969;53.132;6.370;2024-02-26T02:42:18;24.40;;;15.00;;
51943;SDS011;37969;53.132;6.370;2024-02-26T02:44:47;22.33;;;14.75;;
51943;SDS011;37969;53.132;6.370;2024-02-26T02:47:16;21.40;;;13.93;;
51943;SDS011;37969;53.132;6.370;2024-02-26T02:49:45;20.60;;;13.93;;
51943;SDS011;37969;53.132;6.370;2024-02-26T02:52:20;19.88;;;13.68;;
51943;SDS011;37969;53.132;6.370;2024-02-26T02:54:46;19.80;;;13.65;;
51943;SDS011;37969;53.132;6.370;2024-02-26T02:57:13;24.00;;;14.57;;
51943;SDS011;37969;53.132;6.370;2024-02-26T02:59:43;21.27;;;14.15;;
51943;SDS011;37969;53.132;6.370;2024-02-26T03:02:12;18.45;;;13.13;;
51943;SDS011;37969;53.132;6.370;2024-02-26T03:04:42;19.27;;;13.32;;
51943;SDS011;37969;53.132;6.370;2024-02-26T03:07:08;18.95;;;13.18;;
51943;SDS011;37969;53.132;6.370;2024-02-26T03:09:34;21.95;;;13.32;;
51943;SDS011;37969;53.132;6.370;2024-02-26T03:12:04;18.73;;;12.25;;
51943;SDS011;37969;53.132;6.370;2024-02-26T03:14:34;20.10;;;12.68;;
51943;SDS011;37969;53.132;6.370;2024-02-26T03:17:00;20.20;;;12.50;;
51943;SDS011;37969;53.132;6.370;2024-02-26T03:19:27;16.40;;;11.65;;
51943;SDS011;37969;53.132;6.370;2024-02-26T03:21:53;19.08;;;12.57;;
51943;SDS011;37969;53.132;6.370;2024-02-26T03:24:25;17.60;;;12.02;;
51943;SDS011;37969;53.132;6.370;2024-02-26T03:26:51;18.33;;;11.88;;
51943;SDS011;37969;53.132;6.370;2024-02-26T03:29:21;18.98;;;11.88;;
51943;SDS011;37969;53.132;6.370;2024-02-26T03:31:50;18.70;;;11.70;;
51943;SDS011;37969;53.132;6.370;2024-02-26T03:34:18;14.65;;;11.20;;
51943;SDS011;37969;53.132;6.370;2024-02-26T03:36:52;17.90;;;10.55;;
51943;SDS011;37969;53.132;6.370;2024-02-26T03:39:18;15.88;;;11.40;;
51943;SDS011;37969;53.132;6.370;2024-02-26T03:41:44;15.98;;;11.15;;
51943;SDS011;37969;53.132;6.370;2024-02-26T03:44:10;15.98;;;11.27;;
51943;SDS011;37969;53.132;6.370;2024-02-26T03:46:37;13.65;;;10.77;;
51943;SDS011;37969;53.132;6.370;2024-02-26T03:49:03;16.40;;;11.40;;
51943;SDS011;37969;53.132;6.370;2024-02-26T03:51:29;16.13;;;11.30;;
51943;SDS011;37969;53.132;6.370;2024-02-26T03:53:58;15.50;;;10.65;;
51943;SDS011;37969;53.132;6.370;2024-02-26T03:56:34;13.60;;;10.48;;
51943;SDS011;37969;53.132;6.370;2024-02-26T03:59:03;19.08;;;11.05;;
51943;SDS011;37969;53.132;6.370;2024-02-26T04:01:37;14.77;;;10.32;;
51943;SDS011;37969;53.132;6.370;2024-02-26T04:04:09;14.98;;;9.63;;
51943;SDS011;37969;53.132;6.370;2024-02-26T04:06:36;15.00;;;9.80;;
51943;SDS011;37969;53.132;6.370;2024-02-26T04:09:10;15.18;;;9.90;;
51943;SDS011;37969;53.132;6.370;2024-02-26T04:11:39;13.53;;;9.40;;
51943;SDS011;37969;53.132;6.370;2024-02-26T04:14:05;12.73;;;8.73;;
51943;SDS011;37969;53.132;6.370;2024-02-26T04:16:37;10.85;;;8.50;;
51943;SDS011;37969;53.132;6.370;2024-02-26T04:19:04;14.00;;;8.77;;
51943;SDS011;37969;53.132;6.370;2024-02-26T04:21:30;14.45;;;8.65;;
51943;SDS011;37969;53.132;6.370;2024-02-26T04:23:58;12.75;;;8.52;;
51943;SDS011;37969;53.132;6.370;2024-02-26T04:26:28;13.40;;;7.72;;
51943;SDS011;37969;53.132;6.370;2024-02-26T04:28:54;10.43;;;7.93;;
51943;SDS011;37969;53.132;6.370;2024-02-26T04:31:20;11.13;;;8.05;;
51943;SDS011;37969;53.132;6.370;2024-02-26T04:33:49;10.80;;;8.07;;
51943;SDS011;37969;53.132;6.370;2024-02-26T04:36:15;13.43;;;8.93;;
51943;SDS011;37969;53.132;6.370;2024-02-26T04:38:43;15.27;;;8.20;;
51943;SDS011;37969;53.132;6.370;2024-02-26T04:43:38;10.57;;;7.63;;
51943;SDS011;37969;53.132;6.370;2024-02-26T04:46:07;14.40;;;7.63;;
51943;SDS011;37969;53.132;6.370;2024-02-26T04:48:34;11.30;;;7.18;;
51943;SDS011;37969;53.132;6.370;2024-02-26T04:51:03;11.75;;;6.63;;
51943;SDS011;37969;53.132;6.370;2024-02-26T04:53:33;11.95;;;6.88;;
51943;SDS011;37969;53.132;6.370;2024-02-26T04:56:02;10.50;;;6.53;;
51943;SDS011;37969;53.132;6.370;2024-02-26T04:58:29;12.40;;;7.30;;
51943;SDS011;37969;53.132;6.370;2024-02-26T05:00:59;7.63;;;5.88;;
51943;SDS011;37969;53.132;6.370;2024-02-26T05:03:26;14.73;;;7.10;;
51943;SDS011;37969;53.132;6.370;2024-02-26T05:05:55;10.48;;;6.80;;
51943;SDS011;37969;53.132;6.370;2024-02-26T05:08:25;11.00;;;6.47;;
51943;SDS011;37969;53.132;6.370;2024-02-26T05:10:54;9.48;;;6.32;;
51943;SDS011;37969;53.132;6.370;2024-02-26T05:13:21;9.10;;;6.30;;
51943;SDS011;37969;53.132;6.370;2024-02-26T05:15:49;14.20;;;6.45;;
51943;SDS011;37969;53.132;6.370;2024-02-26T05:18:17;9.45;;;6.28;;
51943;SDS011;37969;53.132;6.370;2024-02-26T05:20:47;8.30;;;5.90;;
51943;SDS011;37969;53.132;6.370;2024-02-26T05:23:15;9.23;;;6.00;;
51943;SDS011;37969;53.132;6.370;2024-02-26T05:25:44;10.48;;;6.25;;
51943;SDS011;37969;53.132;6.370;2024-02-26T05:28:16;10.40;;;5.72;;
51943;SDS011;37969;53.132;6.370;2024-02-26T05:30:45;10.63;;;6.20;;
51943;SDS011;37969;53.132;6.370;2024-02-26T05:33:12;10.98;;;6.70;;
51943;SDS011;37969;53.132;6.370;2024-02-26T05:35:40;8.77;;;5.50;;
51943;SDS011;37969;53.132;6.370;2024-02-26T05:38:07;7.95;;;6.03;;
51943;SDS011;37969;53.132;6.370;2024-02-26T05:40:36;7.60;;;5.30;;
51943;SDS011;37969;53.132;6.370;2024-02-26T05:43:04;9.60;;;5.80;;
51943;SDS011;37969;53.132;6.370;2024-02-26T05:45:32;8.38;;;5.55;;
51943;SDS011;37969;53.132;6.370;2024-02-26T05:48:00;7.63;;;5.90;;
51943;SDS011;37969;53.132;6.370;2024-02-26T05:50:30;8.38;;;6.07;;
51943;SDS011;37969;53.132;6.370;2024-02-26T05:52:59;5.80;;;5.20;;
51943;SDS011;37969;53.132;6.370;2024-02-26T05:55:28;5.32;;;4.82;;
51943;SDS011;37969;53.132;6.370;2024-02-26T05:57:55;7.35;;;5.20;;
51943;SDS011;37969;53.132;6.370;2024-02-26T06:00:24;6.68;;;5.32;;
51943;SDS011;37969;53.132;6.370;2024-02-26T06:02:55;9.40;;;4.88;;
51943;SDS011;37969;53.132;6.370;2024-02-26T06:05:27;4.85;;;4.43;;
51943;SDS011;37969;53.132;6.370;2024-02-26T06:07:56;8.60;;;5.55;;
51943;SDS011;37969;53.132;6.370;2024-02-26T06:10:26;5.03;;;4.30;;
51943;SDS011;37969;53.132;6.370;2024-02-26T06:12:53;6.13;;;4.97;;
51943;SDS011;37969;53.132;6.370;2024-02-26T06:15:19;5.70;;;4.32;;
51943;SDS011;37969;53.132;6.370;2024-02-26T06:17:46;4.95;;;4.47;;
51943;SDS011;37969;53.132;6.370;2024-02-26T06:20:15;4.60;;;4.20;;
51943;SDS011;37969;53.132;6.370;2024-02-26T06:22:41;5.47;;;4.65;;
51943;SDS011;37969;53.132;6.370;2024-02-26T06:25:08;5.38;;;4.70;;
51943;SDS011;37969;53.132;6.370;2024-02-26T06:27:35;5.78;;;4.20;;
51943;SDS011;37969;53.132;6.370;2024-02-26T06:30:05;4.85;;;4.45;;
51943;SDS011;37969;53.132;6.370;2024-02-26T06:32:34;6.30;;;4.60;;
51943;SDS011;37969;53.132;6.370;2024-02-26T06:35:02;4.68;;;4.22;;
51943;SDS011;37969;53.132;6.370;2024-02-26T06:37:34;6.28;;;4.40;;
51943;SDS011;37969;53.132;6.370;2024-02-26T06:40:00;4.70;;;4.30;;
51943;SDS011;37969;53.132;6.370;2024-02-26T06:42:33;5.10;;;4.40;;
51943;SDS011;37969;53.132;6.370;2024-02-26T06:45:03;5.53;;;4.20;;
51943;SDS011;37969;53.132;6.370;2024-02-26T06:47:30;5.72;;;4.45;;
51943;SDS011;37969;53.132;6.370;2024-02-26T06:50:00;6.65;;;4.63;;
51943;SDS011;37969;53.132;6.370;2024-02-26T06:52:26;4.85;;;4.45;;
51943;SDS011;37969;53.132;6.370;2024-02-26T06:54:55;6.47;;;4.57;;
51943;SDS011;37969;53.132;6.370;2024-02-26T06:57:27;5.95;;;4.30;;
51943;SDS011;37969;53.132;6.370;2024-02-26T06:59:54;5.28;;;4.43;;
51943;SDS011;37969;53.132;6.370;2024-02-26T07:02:25;5.25;;;4.13;;
51943;SDS011;37969;53.132;6.370;2024-02-26T07:04:51;4.45;;;4.05;;
51943;SDS011;37969;53.132;6.370;2024-02-26T07:07:37;5.75;;;3.90;;
51943;SDS011;37969;53.132;6.370;2024-02-26T07:10:07;4.28;;;3.78;;
51943;SDS011;37969;53.132;6.370;2024-02-26T07:12:33;4.78;;;4.30;;
51943;SDS011;37969;53.132;6.370;2024-02-26T07:15:00;5.18;;;4.40;;
51943;SDS011;37969;53.132;6.370;2024-02-26T07:17:27;6.40;;;4.45;;
51943;SDS011;37969;53.132;6.370;2024-02-26T07:19:55;7.00;;;4.43;;
51943;SDS011;37969;53.132;6.370;2024-02-26T07:22:24;5.45;;;4.30;;
51943;SDS011;37969;53.132;6.370;2024-02-26T07:24:55;5.70;;;4.68;;
51943;SDS011;37969;53.132;6.370;2024-02-26T07:27:21;9.77;;;4.90;;
51943;SDS011;37969;53.132;6.370;2024-02-26T07:29:47;4.88;;;4.30;;
51943;SDS011;37969;53.132;6.370;2024-02-26T07:32:13;6.07;;;4.65;;
51943;SDS011;37969;53.132;6.370;2024-02-26T07:34:40;6.15;;;4.82;;
51943;SDS011;37969;53.132;6.370;2024-02-26T07:37:10;6.47;;;4.33;;
51943;SDS011;37969;53.132;6.370;2024-02-26T07:39:39;6.57;;;4.72;;
51943;SDS011;37969;53.132;6.370;2024-02-26T07:42:07;7.10;;;4.65;;
51943;SDS011;37969;53.132;6.370;2024-02-26T07:44:34;6.78;;;4.55;;
51943;SDS011;37969;53.132;6.370;2024-02-26T07:47:08;8.85;;;4.45;;
51943;SDS011;37969;53.132;6.370;2024-02-26T07:49:35;7.72;;;4.22;;
51943;SDS011;37969;53.132;6.370;2024-02-26T07:52:04;4.60;;;3.93;;
51943;SDS011;37969;53.132;6.370;2024-02-26T07:54:33;8.77;;;5.05;;
51943;SDS011;37969;53.132;6.370;2024-02-26T07:57:03;5.45;;;4.30;;
51943;SDS011;37969;53.132;6.370;2024-02-26T07:59:32;5.85;;;4.20;;
51943;SDS011;37969;53.132;6.370;2024-02-26T08:02:02;5.95;;;3.95;;
51943;SDS011;37969;53.132;6.370;2024-02-26T08:04:31;4.85;;;4.07;;
51943;SDS011;37969;53.132;6.370;2024-02-26T08:06:59;7.68;;;3.83;;
51943;SDS011;37969;53.132;6.370;2024-02-26T08:09:27;4.85;;;4.20;;
51943;SDS011;37969;53.132;6.370;2024-02-26T08:11:54;5.30;;;3.50;;
51943;SDS011;37969;53.132;6.370;2024-02-26T08:14:23;5.47;;;3.27;;
51943;SDS011;37969;53.132;6.370;2024-02-26T08:16:52;5.15;;;3.47;;
51943;SDS011;37969;53.132;6.370;2024-02-26T08:19:18;4.07;;;3.10;;
51943;SDS011;37969;53.132;6.370;2024-02-26T08:21:48;4.60;;;3.00;;
51943;SDS011;37969;53.132;6.370;2024-02-26T08:24:16;6.40;;;2.97;;
51943;SDS011;37969;53.132;6.370;2024-02-26T08:26:43;2.92;;;2.70;;
51943;SDS011;37969;53.132;6.370;2024-02-26T08:29:14;3.38;;;2.25;;
51943;SDS011;37969;53.132;6.370;2024-02-26T08:31:44;3.13;;;2.80;;
51943;SDS011;37969;53.132;6.370;2024-02-26T08:34:13;3.38;;;2.42;;
51943;SDS011;37969;53.132;6.370;2024-02-26T08:36:42;4.10;;;2.20;;
51943;SDS011;37969;53.132;6.370;2024-02-26T08:39:14;3.25;;;2.92;;
51943;SDS011;37969;53.132;6.370;2024-02-26T08:41:43;28.45;;;5.05;;
51943;SDS011;37969;53.132;6.370;2024-02-26T08:44:12;44.58;;;9.57;;
51943;SDS011;37969;53.132;6.370;2024-02-26T08:46:39;4.45;;;2.20;;
51943;SDS011;37969;53.132;6.370;2024-02-26T08:49:11;10.52;;;3.72;;
51943;SDS011;37969;53.132;6.370;2024-02-26T08:51:42;6.03;;;2.00;;
51943;SDS011;37969;53.132;6.370;2024-02-26T08:54:09;20.02;;;4.43;;
51943;SDS011;37969;53.132;6.370;2024-02-26T08:56:35;4.15;;;2.10;;
51943;SDS011;37969;53.132;6.370;2024-02-26T08:59:03;3.40;;;2.08;;
51943;SDS011;37969;53.132;6.370;2024-02-26T09:01:32;38.75;;;8.00;;
51943;SDS011;37969;53.132;6.370;2024-02-26T09:04:03;2.80;;;2.45;;
51943;SDS011;37969;53.132;6.370;2024-02-26T09:06:29;6.35;;;2.40;;
51943;SDS011;37969;53.132;6.370;2024-02-26T09:08:58;36.08;;;8.73;;
51943;SDS011;37969;53.132;6.370;2024-02-26T09:11:28;2.55;;;2.13;;
51943;SDS011;37969;53.132;6.370;2024-02-26T09:13:56;2.40;;;2.20;;
